createdAt,value
2019-05-01T00:01:42.266Z,8.81
2019-05-01T00:04:51.492Z,8.78
2019-05-01T00:07:50.536Z,8.71
2019-05-01T00:10:46.299Z,8.65
2019-05-01T00:13:42.901Z,8.55
2019-05-01T00:16:38.746Z,8.47
2019-05-01T00:19:35.566Z,8.43
2019-05-01T00:22:32.136Z,8.38
2019-05-01T00:25:27.712Z,8.31
2019-05-01T00:28:25.852Z,8.26
2019-05-01T00:31:21.310Z,8.22
2019-05-01T00:34:18.003Z,8.21
2019-05-01T00:37:15.880Z,8.18
2019-05-01T00:40:11.433Z,8.16
2019-05-01T00:43:08.350Z,8.08
2019-05-01T00:46:04.921Z,8.03
2019-05-01T00:49:01.672Z,7.96
2019-05-01T00:51:58.245Z,7.93
2019-05-01T00:54:55.632Z,7.89
2019-05-01T00:57:55.690Z,7.79
2019-05-01T01:01:01.631Z,7.79
2019-05-01T01:03:58.446Z,7.75
2019-05-01T01:06:53.711Z,7.70
2019-05-01T01:09:50.576Z,7.63
2019-05-01T01:12:45.414Z,7.56
2019-05-01T01:15:42.053Z,7.55
2019-05-01T01:18:38.829Z,7.50
2019-05-01T01:21:34.549Z,7.46
2019-05-01T01:24:31.494Z,7.40
2019-05-01T01:27:26.901Z,7.34
2019-05-01T01:30:23.500Z,7.30
2019-05-01T01:33:20.699Z,7.29
2019-05-01T01:36:16.351Z,7.27
2019-05-01T01:39:13.920Z,7.23
2019-05-01T01:42:09.456Z,7.21
2019-05-01T01:45:10.891Z,7.20
2019-05-01T01:48:19.334Z,7.20
2019-05-01T01:51:15.949Z,7.14
2019-05-01T01:54:12.522Z,7.10
2019-05-01T01:57:10.283Z,7.08
2019-05-01T02:00:06.913Z,7.06
2019-05-01T02:03:06.116Z,7.02
2019-05-01T02:06:01.672Z,6.99
2019-05-01T02:08:57.726Z,6.94
2019-05-01T02:11:54.237Z,6.93
2019-05-01T02:14:49.805Z,6.94
2019-05-01T02:17:46.600Z,6.94
2019-05-01T02:20:42.445Z,6.93
2019-05-01T02:23:38.811Z,6.92
2019-05-01T02:26:34.125Z,6.87
2019-05-01T02:29:35.783Z,6.81
2019-05-01T02:32:31.635Z,6.77
2019-05-01T02:35:30.434Z,6.76
2019-05-01T02:38:23.831Z,6.73
2019-05-01T02:41:21.650Z,6.72
2019-05-01T02:44:17.487Z,6.71
2019-05-01T02:47:15.303Z,6.70
2019-05-01T02:50:18.208Z,6.69
2019-05-01T02:53:13.773Z,6.66
2019-05-01T02:56:23.046Z,6.62
2019-05-01T02:59:18.687Z,6.62
2019-05-01T03:02:15.546Z,6.58
2019-05-01T03:05:11.995Z,6.54
2019-05-01T03:08:07.742Z,6.49
2019-05-01T03:11:04.669Z,6.48
2019-05-01T03:14:01.517Z,6.45
2019-05-01T03:16:59.297Z,6.43
2019-05-01T03:20:10.006Z,6.38
2019-05-01T03:23:18.963Z,6.36
2019-05-01T03:26:14.989Z,6.34
2019-05-01T03:29:10.407Z,6.30
2019-05-01T03:32:18.765Z,6.26
2019-05-01T03:35:06.776Z,6.23
2019-05-01T03:38:03.670Z,6.21
2019-05-01T03:41:00.267Z,6.17
2019-05-01T03:43:56.537Z,6.12
2019-05-01T03:46:53.411Z,6.07
2019-05-01T03:49:50.330Z,6.05
2019-05-01T03:52:45.877Z,6.02
2019-05-01T03:55:42.538Z,5.96
2019-05-01T03:58:39.179Z,5.90
2019-05-01T04:01:50.751Z,5.85
2019-05-01T04:04:47.404Z,5.71
2019-05-01T04:07:43.013Z,5.70
2019-05-01T04:10:39.871Z,5.62
2019-05-01T04:13:36.701Z,5.54
2019-05-01T04:16:33.385Z,5.52
2019-05-01T04:19:28.155Z,5.52
2019-05-01T04:22:25.302Z,5.54
2019-05-01T04:25:20.993Z,5.52
2019-05-01T04:28:29.830Z,5.51
2019-05-01T04:31:51.678Z,5.51
2019-05-01T04:34:55.918Z,5.53
2019-05-01T04:37:52.588Z,5.54
2019-05-01T04:40:49.340Z,5.54
2019-05-01T04:43:46.219Z,5.54
2019-05-01T04:46:42.859Z,5.53
2019-05-01T04:49:39.702Z,5.44
2019-05-01T04:52:36.446Z,5.44
2019-05-01T04:55:32.575Z,5.40
2019-05-01T04:58:29.396Z,5.40
2019-05-01T05:01:28.112Z,5.41
2019-05-01T05:04:25.264Z,5.48
2019-05-01T05:07:22.113Z,5.51
2019-05-01T05:10:17.922Z,5.56
2019-05-01T05:13:32.181Z,5.63
2019-05-01T05:16:51.738Z,5.71
2019-05-01T05:19:48.604Z,5.78
2019-05-01T05:22:43.994Z,5.88
2019-05-01T05:25:40.805Z,5.94
2019-05-01T05:28:37.259Z,6.00
2019-05-01T05:31:34.721Z,6.08
2019-05-01T05:34:30.262Z,6.15
2019-05-01T05:37:30.389Z,6.24
2019-05-01T05:40:27.186Z,6.32
2019-05-01T05:43:22.780Z,6.31
2019-05-01T05:46:18.998Z,6.34
2019-05-01T05:49:15.737Z,6.40
2019-05-01T05:52:23.801Z,6.42
2019-05-01T05:55:29.372Z,6.42
2019-05-01T05:58:38.871Z,6.48
2019-05-01T06:01:48.776Z,6.55
2019-05-01T06:04:54.505Z,6.68
2019-05-01T06:08:03.258Z,6.80
2019-05-01T06:11:10.214Z,6.89
2019-05-01T06:14:20.996Z,6.98
2019-05-01T06:17:31.628Z,7.06
2019-05-01T06:20:37.266Z,7.12
2019-05-01T06:23:46.323Z,7.23
2019-05-01T06:26:43.466Z,7.30
2019-05-01T06:29:40.062Z,7.37
2019-05-01T06:32:40.012Z,7.49
2019-05-01T06:35:34.074Z,7.60
2019-05-01T06:38:36.193Z,7.70
2019-05-01T06:41:33.759Z,7.76
2019-05-01T06:44:38.387Z,7.94
2019-05-01T06:47:43.169Z,7.94
2019-05-01T06:51:02.776Z,8.10
2019-05-01T06:53:58.201Z,8.23
2019-05-01T06:56:53.672Z,8.52
2019-05-01T06:59:50.307Z,8.52
2019-05-01T07:02:47.871Z,8.63
2019-05-01T07:05:44.748Z,8.71
2019-05-01T07:08:46.429Z,8.85
2019-05-01T07:11:52.580Z,8.97
2019-05-01T07:14:47.086Z,9.07
2019-05-01T07:17:43.835Z,9.21
2019-05-01T07:20:53.809Z,9.34
2019-05-01T07:23:52.243Z,9.44
2019-05-01T07:26:49.133Z,9.52
2019-05-01T07:29:44.915Z,9.65
2019-05-01T07:32:47.110Z,9.72
2019-05-01T07:35:42.809Z,9.84
2019-05-01T07:38:40.574Z,9.94
2019-05-01T07:41:38.799Z,10.08
2019-05-01T07:44:42.355Z,10.23
2019-05-01T07:47:45.587Z,10.36
2019-05-01T07:50:42.381Z,10.47
2019-05-01T07:53:39.734Z,10.58
2019-05-01T07:56:35.755Z,10.69
2019-05-01T07:59:32.106Z,10.88
2019-05-01T08:02:31.138Z,11.05
2019-05-01T08:05:24.350Z,11.15
2019-05-01T08:08:21.132Z,11.26
2019-05-01T08:11:17.002Z,11.42
2019-05-01T08:14:16.627Z,11.50
2019-05-01T08:17:12.824Z,11.56
2019-05-01T08:20:15.041Z,11.67
2019-05-01T08:23:12.109Z,11.82
2019-05-01T08:26:08.808Z,11.96
2019-05-01T08:29:30.376Z,12.12
2019-05-01T08:32:39.120Z,12.22
2019-05-01T08:35:36.396Z,12.42
2019-05-01T08:38:34.341Z,12.66
2019-05-01T08:41:31.710Z,12.92
2019-05-01T08:47:25.937Z,13.25
2019-05-01T08:50:26.769Z,13.34
2019-05-01T08:53:23.481Z,13.55
2019-05-01T08:56:21.844Z,13.81
2019-05-01T08:59:23.429Z,14.04
2019-05-01T09:02:16.111Z,14.15
2019-05-01T09:05:28.176Z,14.14
2019-05-01T09:08:27.162Z,14.13
2019-05-01T09:11:24.490Z,14.16
2019-05-01T09:14:20.940Z,14.25
2019-05-01T09:17:17.613Z,14.29
2019-05-01T09:20:12.964Z,14.29
2019-05-01T09:23:14.359Z,14.29
2019-05-01T09:26:23.646Z,14.34
2019-05-01T09:29:22.748Z,14.53
2019-05-01T09:32:19.596Z,14.71
2019-05-01T09:35:16.404Z,14.74
2019-05-01T09:38:13.383Z,14.79
2019-05-01T09:41:09.065Z,14.88
2019-05-01T09:44:10.034Z,14.90
2019-05-01T09:47:01.427Z,15.05
2019-05-01T09:49:59.039Z,15.22
2019-05-01T09:53:06.810Z,15.22
2019-05-01T09:56:24.997Z,15.28
2019-05-01T09:59:23.072Z,15.60
2019-05-01T10:02:18.673Z,15.92
2019-05-01T10:05:28.915Z,16.10
2019-05-01T10:08:20.920Z,16.24
2019-05-01T10:11:17.988Z,16.35
2019-05-01T10:14:14.856Z,16.42
2019-05-01T10:17:13.443Z,16.46
2019-05-01T10:20:07.692Z,16.53
2019-05-01T10:23:03.132Z,16.59
2019-05-01T10:26:01.707Z,16.60
2019-05-01T10:29:16.102Z,16.56
2019-05-01T10:32:21.692Z,16.38
2019-05-01T10:35:27.888Z,16.34
2019-05-01T10:38:24.468Z,16.58
2019-05-01T10:41:21.356Z,16.83
2019-05-01T10:44:18.034Z,16.85
2019-05-01T10:47:14.700Z,16.80
2019-05-01T10:50:12.469Z,16.67
2019-05-01T10:53:08.265Z,16.64
2019-05-01T10:56:04.786Z,16.60
2019-05-01T10:59:01.538Z,16.60
2019-05-01T11:02:06.949Z,16.87
2019-05-01T11:05:03.494Z,17.19
2019-05-01T11:08:00.307Z,17.39
2019-05-01T11:10:57.196Z,17.52
2019-05-01T11:13:54.059Z,17.60
2019-05-01T11:16:50.756Z,17.39
2019-05-01T11:19:47.392Z,17.16
2019-05-01T11:22:43.732Z,17.00
2019-05-01T11:25:44.704Z,16.93
2019-05-01T11:28:40.420Z,16.95
2019-05-01T11:31:43.206Z,16.83
2019-05-01T11:34:53.780Z,16.81
2019-05-01T11:38:14.267Z,16.64
2019-05-01T11:41:13.309Z,16.64
2019-05-01T11:44:09.127Z,16.61
2019-05-01T11:47:06.916Z,16.91
2019-05-01T11:50:06.206Z,17.11
2019-05-01T11:53:02.680Z,17.14
2019-05-01T11:55:59.464Z,17.07
2019-05-01T11:58:54.972Z,17.11
2019-05-01T12:01:51.630Z,17.38
2019-05-01T12:04:47.531Z,17.72
2019-05-01T12:07:45.101Z,17.61
2019-05-01T12:10:41.009Z,17.44
2019-05-01T12:13:43.877Z,17.39
2019-05-01T12:16:50.236Z,17.38
2019-05-01T12:19:45.592Z,17.41
2019-05-01T12:22:42.022Z,17.46
2019-05-01T12:25:37.641Z,17.48
2019-05-01T12:28:35.555Z,17.57
2019-05-01T12:31:32.643Z,17.54
2019-05-01T12:34:35.888Z,17.53
2019-05-01T12:37:50.335Z,17.53
2019-05-01T12:40:45.059Z,17.62
2019-05-01T12:43:43.741Z,17.71
2019-05-01T12:46:52.513Z,17.81
2019-05-01T12:49:50.284Z,17.91
2019-05-01T12:52:57.969Z,18.08
2019-05-01T12:56:10.036Z,18.11
2019-05-01T12:59:08.566Z,18.19
2019-05-01T13:02:04.276Z,18.21
2019-05-01T13:05:02.267Z,18.19
2019-05-01T13:07:57.793Z,18.05
2019-05-01T13:10:54.150Z,18.03
2019-05-01T13:13:50.818Z,18.10
2019-05-01T13:16:47.322Z,18.26
2019-05-01T13:19:42.075Z,18.71
2019-05-01T13:22:38.881Z,18.98
2019-05-01T13:25:34.685Z,18.98
2019-05-01T13:28:49.766Z,18.95
2019-05-01T13:31:51.304Z,18.97
2019-05-01T13:34:52.671Z,18.82
2019-05-01T13:37:48.782Z,18.66
2019-05-01T13:40:47.800Z,18.58
2019-05-01T13:43:51.609Z,18.51
2019-05-01T13:46:46.666Z,18.39
2019-05-01T13:49:44.278Z,18.30
2019-05-01T13:52:41.074Z,18.23
2019-05-01T13:55:37.671Z,18.23
2019-05-01T13:58:35.273Z,18.22
2019-05-01T14:01:30.898Z,18.27
2019-05-01T14:04:28.530Z,18.35
2019-05-01T14:07:28.234Z,18.50
2019-05-01T14:10:25.933Z,18.62
2019-05-01T14:13:22.653Z,18.77
2019-05-01T14:16:19.849Z,18.88
2019-05-01T14:19:17.074Z,19.20
2019-05-01T14:22:24.033Z,19.82
2019-05-01T14:25:20.615Z,19.98
2019-05-01T14:28:16.121Z,20.15
2019-05-01T14:31:12.794Z,20.54
2019-05-01T14:34:09.404Z,21.17
2019-05-01T14:37:05.002Z,21.31
2019-05-01T14:40:03.037Z,21.16
2019-05-01T14:42:58.818Z,20.75
2019-05-01T14:45:56.041Z,20.25
2019-05-01T14:48:51.012Z,19.86
2019-05-01T14:51:47.673Z,19.56
2019-05-01T14:54:44.245Z,19.53
2019-05-01T14:57:39.885Z,20.08
2019-05-01T15:00:37.693Z,21.00
2019-05-01T15:03:33.279Z,21.54
2019-05-01T15:06:29.944Z,21.93
2019-05-01T15:09:26.817Z,22.30
2019-05-01T15:12:23.237Z,22.72
2019-05-01T15:15:49.660Z,22.94
2019-05-01T15:18:59.519Z,23.04
2019-05-01T15:21:56.414Z,23.07
2019-05-01T15:24:52.571Z,23.08
2019-05-01T15:27:48.168Z,23.12
2019-05-01T15:30:45.924Z,22.74
2019-05-01T15:33:41.605Z,22.66
2019-05-01T15:36:38.689Z,22.79
2019-05-01T15:39:46.445Z,22.98
2019-05-01T15:42:45.840Z,22.98
2019-05-01T15:45:42.502Z,22.89
2019-05-01T15:48:39.369Z,22.70
2019-05-01T15:51:36.032Z,22.59
2019-05-01T15:54:31.822Z,22.51
2019-05-01T15:57:28.527Z,22.64
2019-05-01T16:00:25.248Z,22.70
2019-05-01T16:03:21.752Z,22.61
2019-05-01T16:06:17.655Z,22.40
2019-05-01T16:09:14.389Z,22.23
2019-05-01T16:12:24.276Z,21.96
2019-05-01T16:15:25.470Z,21.64
2019-05-01T16:18:23.128Z,21.53
2019-05-01T16:21:20.810Z,21.45
2019-05-01T16:24:17.379Z,21.08
2019-05-01T16:27:13.209Z,20.82
2019-05-01T16:30:10.985Z,20.49
2019-05-01T16:33:06.570Z,20.26
2019-05-01T16:36:03.203Z,20.13
2019-05-01T16:39:15.705Z,19.99
2019-05-01T16:42:11.542Z,19.82
2019-05-01T16:45:07.822Z,19.64
2019-05-01T16:48:03.636Z,19.49
2019-05-01T16:51:06.085Z,19.41
2019-05-01T16:54:03.239Z,19.30
2019-05-01T16:56:58.323Z,19.21
2019-05-01T16:59:54.911Z,19.00
2019-05-01T17:03:05.149Z,18.87
2019-05-01T17:06:18.837Z,18.77
2019-05-01T17:09:26.840Z,18.68
2019-05-01T17:12:24.230Z,18.55
2019-05-01T17:15:19.804Z,18.43
2019-05-01T17:18:16.481Z,18.28
2019-05-01T17:21:13.204Z,18.11
2019-05-01T17:24:09.448Z,17.98
2019-05-01T17:27:06.371Z,17.90
2019-05-01T17:30:02.117Z,17.81
2019-05-01T17:33:00.824Z,17.70
2019-05-01T17:35:54.248Z,17.64
2019-05-01T17:38:51.246Z,17.57
2019-05-01T17:41:49.056Z,17.51
2019-05-01T17:44:45.804Z,17.42
2019-05-01T17:47:42.778Z,17.32
2019-05-01T17:50:38.417Z,17.24
2019-05-01T17:53:35.355Z,17.14
2019-05-01T17:56:30.901Z,16.98
2019-05-01T17:59:27.841Z,16.84
2019-05-01T18:02:31.977Z,16.72
2019-05-01T18:05:46.443Z,16.65
2019-05-01T18:08:42.911Z,16.56
2019-05-01T18:11:39.628Z,16.43
2019-05-01T18:14:36.798Z,16.36
2019-05-01T18:17:31.821Z,16.25
2019-05-01T18:20:33.865Z,16.14
2019-05-01T18:23:49.423Z,16.07
2019-05-01T18:26:58.817Z,15.96
2019-05-01T18:30:01.580Z,15.82
2019-05-01T18:32:59.875Z,15.67
2019-05-01T18:35:56.415Z,15.57
2019-05-01T18:39:16.673Z,15.49
2019-05-01T18:42:13.831Z,15.37
2019-05-01T18:45:20.135Z,15.21
2019-05-01T18:48:12.140Z,15.11
2019-05-01T18:51:20.396Z,14.97
2019-05-01T18:54:16.081Z,14.84
2019-05-01T18:57:12.961Z,14.70
2019-05-01T19:00:08.854Z,14.56
2019-05-01T19:03:05.471Z,14.46
2019-05-01T19:06:00.775Z,14.34
2019-05-01T19:08:58.849Z,14.23
2019-05-01T19:11:54.697Z,14.15
2019-05-01T19:14:51.490Z,14.04
2019-05-01T19:17:48.037Z,13.94
2019-05-01T19:20:43.739Z,13.88
2019-05-01T19:23:40.185Z,13.80
2019-05-01T19:26:38.282Z,13.70
2019-05-01T19:29:33.955Z,13.65
2019-05-01T19:32:29.606Z,13.62
2019-05-01T19:35:41.074Z,13.59
2019-05-01T19:38:36.934Z,13.51
2019-05-01T19:41:34.466Z,13.45
2019-05-01T19:44:31.447Z,13.35
2019-05-01T19:47:28.325Z,13.26
2019-05-01T19:50:28.352Z,13.16
2019-05-01T19:53:25.459Z,13.07
2019-05-01T19:56:22.793Z,12.97
2019-05-01T19:59:18.227Z,12.90
2019-05-01T20:02:17.207Z,12.82
2019-05-01T20:05:11.173Z,12.74
2019-05-01T20:08:11.645Z,12.64
2019-05-01T20:11:09.770Z,12.55
2019-05-01T20:14:06.209Z,12.47
2019-05-01T20:17:04.665Z,12.37
2019-05-01T20:19:57.977Z,12.32
2019-05-01T20:23:03.855Z,12.24
2019-05-01T20:26:01.969Z,12.04
2019-05-01T20:29:00.508Z,12.04
2019-05-01T20:31:56.839Z,11.92
2019-05-01T20:34:54.037Z,11.80
2019-05-01T20:37:51.434Z,11.72
2019-05-01T20:40:51.275Z,11.66
2019-05-01T20:43:48.194Z,11.60
2019-05-01T20:46:44.708Z,11.56
2019-05-01T20:49:41.326Z,11.52
2019-05-01T20:52:37.002Z,11.48
2019-05-01T20:55:33.926Z,11.41
2019-05-01T20:58:31.967Z,11.38
2019-05-01T21:01:29.555Z,11.28
2019-05-01T21:04:55.588Z,11.21
2019-05-01T21:08:09.707Z,11.14
2019-05-01T21:11:13.050Z,11.08
2019-05-01T21:14:18.097Z,10.99
2019-05-01T21:17:09.592Z,10.93
2019-05-01T21:20:03.865Z,10.87
2019-05-01T21:23:03.918Z,10.81
2019-05-01T21:25:55.935Z,10.70
2019-05-01T21:28:54.129Z,10.67
2019-05-01T21:31:49.675Z,10.62
2019-05-01T21:34:46.698Z,10.56
2019-05-01T21:37:42.286Z,10.52
2019-05-01T21:40:41.129Z,10.48
2019-05-01T21:43:37.125Z,10.42
2019-05-01T21:46:34.055Z,10.37
2019-05-01T21:49:28.841Z,10.34
2019-05-01T21:52:26.823Z,10.30
2019-05-01T21:55:20.140Z,10.26
2019-05-01T21:58:21.110Z,10.20
2019-05-01T22:01:13.542Z,10.15
2019-05-01T22:04:09.085Z,10.08
2019-05-01T22:07:06.883Z,10.03
2019-05-01T22:10:02.505Z,9.99
2019-05-01T22:12:58.924Z,9.95
2019-05-01T22:15:58.520Z,9.90
2019-05-01T22:19:06.639Z,9.85
2019-05-01T22:22:21.026Z,9.81
2019-05-01T22:25:26.603Z,9.77
2019-05-01T22:28:32.915Z,9.73
2019-05-01T22:31:47.274Z,9.69
2019-05-01T22:34:51.738Z,9.67
2019-05-01T22:37:48.570Z,9.63
2019-05-01T22:41:06.024Z,9.57
2019-05-01T22:43:53.388Z,9.54
2019-05-01T22:46:50.052Z,9.49
2019-05-01T22:49:51.280Z,9.44
2019-05-01T22:52:47.882Z,9.42
2019-05-01T22:55:44.721Z,9.38
2019-05-01T22:58:40.288Z,9.32
2019-05-01T23:01:36.993Z,9.26
2019-05-01T23:04:33.711Z,9.20
2019-05-01T23:07:30.171Z,9.16
2019-05-01T23:10:26.345Z,9.10
2019-05-01T23:13:21.376Z,9.06
2019-05-01T23:16:19.188Z,9.00
2019-05-01T23:19:14.703Z,8.96
2019-05-01T23:22:12.651Z,8.91
2019-05-01T23:25:08.142Z,8.85
2019-05-01T23:28:06.045Z,8.82
2019-05-01T23:31:01.681Z,8.77
2019-05-01T23:33:58.332Z,8.74
2019-05-01T23:36:55.321Z,8.74
2019-05-01T23:39:52.245Z,8.70
2019-05-01T23:42:52.817Z,8.68
2019-05-01T23:45:44.895Z,8.67
2019-05-01T23:48:41.478Z,8.63
2019-05-01T23:51:37.083Z,8.59
2019-05-01T23:54:33.133Z,8.57
2019-05-01T23:57:28.429Z,8.55
